sensor_id;sensor_type;location;lat;lon;timestamp;P1;durP1;ratioP1;P2;durP2;ratioP2
80481;SDS011;69797;43.864;21.410;2023-07-30T00:00:44;8.82;;;3.05;;
80481;SDS011;69797;43.864;21.410;2023-07-30T00:03:11;8.77;;;2.97;;
80481;SDS011;69797;43.864;21.410;2023-07-30T00:05:38;8.40;;;3.17;;
80481;SDS011;69797;43.864;21.410;2023-07-30T00:08:05;7.10;;;3.08;;
80481;SDS011;69797;43.864;21.410;2023-07-30T00:10:31;5.57;;;2.78;;
80481;SDS011;69797;43.864;21.410;2023-07-30T00:12:58;5.43;;;2.95;;
80481;SDS011;69797;43.864;21.410;2023-07-30T00:15:25;9.20;;;2.90;;
80481;SDS011;69797;43.864;21.410;2023-07-30T00:17:52;6.97;;;2.90;;
80481;SDS011;69797;43.864;21.410;2023-07-30T00:20:18;10.23;;;3.00;;
80481;SDS011;69797;43.864;21.410;2023-07-30T00:22:46;7.15;;;2.95;;
80481;SDS011;69797;43.864;21.410;2023-07-30T00:25:13;9.00;;;3.38;;
80481;SDS011;69797;43.864;21.410;2023-07-30T00:27:39;6.93;;;2.92;;
80481;SDS011;69797;43.864;21.410;2023-07-30T00:30:07;7.90;;;3.73;;
80481;SDS011;69797;43.864;21.410;2023-07-30T00:32:34;8.38;;;3.30;;
80481;SDS011;69797;43.864;21.410;2023-07-30T00:35:00;14.65;;;4.05;;
80481;SDS011;69797;43.864;21.410;2023-07-30T00:37:27;9.85;;;3.15;;
80481;SDS011;69797;43.864;21.410;2023-07-30T00:39:54;13.15;;;3.63;;
80481;SDS011;69797;43.864;21.410;2023-07-30T00:42:21;7.90;;;3.90;;
80481;SDS011;69797;43.864;21.410;2023-07-30T00:44:47;8.45;;;3.97;;
80481;SDS011;69797;43.864;21.410;2023-07-30T00:47:14;7.82;;;3.90;;
80481;SDS011;69797;43.864;21.410;2023-07-30T00:49:41;10.68;;;3.47;;
80481;SDS011;69797;43.864;21.410;2023-07-30T00:52:08;7.97;;;3.28;;
80481;SDS011;69797;43.864;21.410;2023-07-30T00:54:35;11.07;;;3.47;;
80481;SDS011;69797;43.864;21.410;2023-07-30T00:57:02;6.82;;;3.35;;
80481;SDS011;69797;43.864;21.410;2023-07-30T00:59:48;11.23;;;3.45;;
80481;SDS011;69797;43.864;21.410;2023-07-30T01:02:15;6.15;;;3.50;;
80481;SDS011;69797;43.864;21.410;2023-07-30T01:04:42;7.07;;;3.63;;
80481;SDS011;69797;43.864;21.410;2023-07-30T01:07:10;8.03;;;3.23;;
80481;SDS011;69797;43.864;21.410;2023-07-30T01:09:37;8.77;;;3.78;;
80481;SDS011;69797;43.864;21.410;2023-07-30T01:12:05;13.15;;;3.60;;
80481;SDS011;69797;43.864;21.410;2023-07-30T01:14:32;11.43;;;3.58;;
80481;SDS011;69797;43.864;21.410;2023-07-30T01:17:00;8.43;;;3.35;;
80481;SDS011;69797;43.864;21.410;2023-07-30T01:19:26;13.33;;;4.17;;
80481;SDS011;69797;43.864;21.410;2023-07-30T01:21:53;14.68;;;3.72;;
80481;SDS011;69797;43.864;21.410;2023-07-30T01:24:20;10.90;;;3.50;;
80481;SDS011;69797;43.864;21.410;2023-07-30T01:26:49;13.98;;;3.75;;
80481;SDS011;69797;43.864;21.410;2023-07-30T01:29:22;9.77;;;3.40;;
80481;SDS011;69797;43.864;21.410;2023-07-30T01:31:57;9.50;;;2.97;;
80481;SDS011;69797;43.864;21.410;2023-07-30T01:34:28;15.80;;;3.95;;
80481;SDS011;69797;43.864;21.410;2023-07-30T01:36:59;12.48;;;4.07;;
80481;SDS011;69797;43.864;21.410;2023-07-30T01:39:27;7.63;;;3.67;;
80481;SDS011;69797;43.864;21.410;2023-07-30T01:41:54;8.55;;;3.35;;
80481;SDS011;69797;43.864;21.410;2023-07-30T01:44:21;5.63;;;2.87;;
80481;SDS011;69797;43.864;21.410;2023-07-30T01:46:48;9.60;;;3.17;;
80481;SDS011;69797;43.864;21.410;2023-07-30T01:49:15;9.85;;;3.50;;
80481;SDS011;69797;43.864;21.410;2023-07-30T01:51:42;14.95;;;3.25;;
80481;SDS011;69797;43.864;21.410;2023-07-30T01:54:09;10.90;;;3.60;;
80481;SDS011;69797;43.864;21.410;2023-07-30T01:56:35;10.00;;;4.20;;
80481;SDS011;69797;43.864;21.410;2023-07-30T01:59:02;10.52;;;2.92;;
80481;SDS011;69797;43.864;21.410;2023-07-30T02:01:29;14.70;;;3.22;;
80481;SDS011;69797;43.864;21.410;2023-07-30T02:03:56;22.88;;;4.55;;
80481;SDS011;69797;43.864;21.410;2023-07-30T02:06:22;15.77;;;3.75;;
80481;SDS011;69797;43.864;21.410;2023-07-30T02:08:49;10.27;;;3.20;;
80481;SDS011;69797;43.864;21.410;2023-07-30T02:11:16;10.07;;;3.78;;
80481;SDS011;69797;43.864;21.410;2023-07-30T02:13:43;10.80;;;3.65;;
80481;SDS011;69797;43.864;21.410;2023-07-30T02:16:09;13.80;;;3.80;;
80481;SDS011;69797;43.864;21.410;2023-07-30T02:18:36;10.75;;;3.92;;
80481;SDS011;69797;43.864;21.410;2023-07-30T02:21:03;17.87;;;4.30;;
80481;SDS011;69797;43.864;21.410;2023-07-30T02:23:30;12.95;;;4.00;;
80481;SDS011;69797;43.864;21.410;2023-07-30T02:25:56;13.32;;;4.05;;
80481;SDS011;69797;43.864;21.410;2023-07-30T02:28:23;10.02;;;3.50;;
80481;SDS011;69797;43.864;21.410;2023-07-30T02:30:50;12.60;;;4.30;;
80481;SDS011;69797;43.864;21.410;2023-07-30T02:33:17;12.17;;;4.17;;
80481;SDS011;69797;43.864;21.410;2023-07-30T02:35:44;11.25;;;3.67;;
80481;SDS011;69797;43.864;21.410;2023-07-30T02:38:10;11.20;;;3.92;;
80481;SDS011;69797;43.864;21.410;2023-07-30T02:40:37;12.60;;;4.13;;
80481;SDS011;69797;43.864;21.410;2023-07-30T02:43:04;16.00;;;3.83;;
80481;SDS011;69797;43.864;21.410;2023-07-30T02:45:31;14.43;;;3.77;;
80481;SDS011;69797;43.864;21.410;2023-07-30T02:47:58;18.30;;;3.50;;
80481;SDS011;69797;43.864;21.410;2023-07-30T02:50:24;12.80;;;3.30;;
80481;SDS011;69797;43.864;21.410;2023-07-30T02:52:51;10.55;;;3.80;;
80481;SDS011;69797;43.864;21.410;2023-07-30T02:55:18;11.35;;;3.65;;
80481;SDS011;69797;43.864;21.410;2023-07-30T02:57:45;14.27;;;3.77;;
80481;SDS011;69797;43.864;21.410;2023-07-30T03:00:11;16.00;;;4.00;;
80481;SDS011;69797;43.864;21.410;2023-07-30T03:02:40;10.63;;;3.67;;
80481;SDS011;69797;43.864;21.410;2023-07-30T03:05:07;10.48;;;3.90;;
80481;SDS011;69797;43.864;21.410;2023-07-30T03:07:35;10.02;;;3.38;;
80481;SDS011;69797;43.864;21.410;2023-07-30T03:10:02;11.63;;;3.70;;
80481;SDS011;69797;43.864;21.410;2023-07-30T03:12:29;11.73;;;4.22;;
80481;SDS011;69797;43.864;21.410;2023-07-30T03:14:55;17.65;;;3.80;;
80481;SDS011;69797;43.864;21.410;2023-07-30T03:17:22;16.70;;;3.65;;
80481;SDS011;69797;43.864;21.410;2023-07-30T03:19:49;13.57;;;3.78;;
80481;SDS011;69797;43.864;21.410;2023-07-30T03:22:16;11.10;;;4.03;;
80481;SDS011;69797;43.864;21.410;2023-07-30T03:24:43;11.23;;;3.60;;
80481;SDS011;69797;43.864;21.410;2023-07-30T03:27:12;15.70;;;3.75;;
80481;SDS011;69797;43.864;21.410;2023-07-30T03:29:39;14.75;;;4.60;;
80481;SDS011;69797;43.864;21.410;2023-07-30T03:32:06;18.77;;;4.53;;
80481;SDS011;69797;43.864;21.410;2023-07-30T03:34:33;15.80;;;5.80;;
80481;SDS011;69797;43.864;21.410;2023-07-30T03:36:59;10.60;;;5.00;;
80481;SDS011;69797;43.864;21.410;2023-07-30T03:39:27;12.32;;;6.20;;
80481;SDS011;69797;43.864;21.410;2023-07-30T03:41:53;11.35;;;4.78;;
80481;SDS011;69797;43.864;21.410;2023-07-30T03:44:20;11.25;;;4.68;;
80481;SDS011;69797;43.864;21.410;2023-07-30T03:46:47;8.17;;;4.27;;
80481;SDS011;69797;43.864;21.410;2023-07-30T03:49:14;13.80;;;4.32;;
80481;SDS011;69797;43.864;21.410;2023-07-30T03:51:41;12.05;;;4.55;;
80481;SDS011;69797;43.864;21.410;2023-07-30T03:54:07;15.20;;;4.57;;
80481;SDS011;69797;43.864;21.410;2023-07-30T03:56:34;12.32;;;4.43;;
80481;SDS011;69797;43.864;21.410;2023-07-30T03:59:01;12.47;;;4.53;;
80481;SDS011;69797;43.864;21.410;2023-07-30T04:01:28;14.50;;;4.53;;
80481;SDS011;69797;43.864;21.410;2023-07-30T04:03:56;12.25;;;4.00;;
80481;SDS011;69797;43.864;21.410;2023-07-30T04:06:23;15.10;;;4.10;;
80481;SDS011;69797;43.864;21.410;2023-07-30T04:08:50;11.38;;;4.05;;
80481;SDS011;69797;43.864;21.410;2023-07-30T04:11:17;11.67;;;3.87;;
80481;SDS011;69797;43.864;21.410;2023-07-30T04:13:44;15.18;;;3.97;;
80481;SDS011;69797;43.864;21.410;2023-07-30T04:16:11;12.32;;;3.97;;
80481;SDS011;69797;43.864;21.410;2023-07-30T04:18:37;10.25;;;3.90;;
80481;SDS011;69797;43.864;21.410;2023-07-30T04:21:04;14.10;;;4.35;;
80481;SDS011;69797;43.864;21.410;2023-07-30T04:23:31;14.43;;;3.80;;
80481;SDS011;69797;43.864;21.410;2023-07-30T04:25:58;11.75;;;4.00;;
80481;SDS011;69797;43.864;21.410;2023-07-30T04:28:25;12.60;;;3.58;;
80481;SDS011;69797;43.864;21.410;2023-07-30T04:30:51;12.43;;;5.47;;
80481;SDS011;69797;43.864;21.410;2023-07-30T04:33:18;12.00;;;4.95;;
80481;SDS011;69797;43.864;21.410;2023-07-30T04:35:45;12.53;;;3.73;;
80481;SDS011;69797;43.864;21.410;2023-07-30T04:38:12;12.95;;;4.90;;
80481;SDS011;69797;43.864;21.410;2023-07-30T04:40:39;16.42;;;3.90;;
80481;SDS011;69797;43.864;21.410;2023-07-30T04:43:06;11.55;;;4.80;;
80481;SDS011;69797;43.864;21.410;2023-07-30T04:45:33;11.57;;;4.53;;
80481;SDS011;69797;43.864;21.410;2023-07-30T04:48:00;9.77;;;3.93;;
80481;SDS011;69797;43.864;21.410;2023-07-30T04:50:27;12.00;;;5.13;;
80481;SDS011;69797;43.864;21.410;2023-07-30T04:52:54;12.43;;;6.15;;
80481;SDS011;69797;43.864;21.410;2023-07-30T04:55:20;11.98;;;5.10;;
80481;SDS011;69797;43.864;21.410;2023-07-30T04:57:47;10.45;;;4.57;;
80481;SDS011;69797;43.864;21.410;2023-07-30T05:00:14;10.33;;;3.50;;
80481;SDS011;69797;43.864;21.410;2023-07-30T05:02:41;8.90;;;3.53;;
80481;SDS011;69797;43.864;21.410;2023-07-30T05:05:08;8.15;;;3.67;;
80481;SDS011;69797;43.864;21.410;2023-07-30T05:07:35;9.50;;;3.80;;
80481;SDS011;69797;43.864;21.410;2023-07-30T05:10:02;10.20;;;3.88;;
80481;SDS011;69797;43.864;21.410;2023-07-30T05:12:30;10.10;;;3.37;;
80481;SDS011;69797;43.864;21.410;2023-07-30T05:14:57;9.65;;;3.30;;
80481;SDS011;69797;43.864;21.410;2023-07-30T05:17:23;8.27;;;4.13;;
80481;SDS011;69797;43.864;21.410;2023-07-30T05:19:50;7.80;;;4.05;;
80481;SDS011;69797;43.864;21.410;2023-07-30T05:22:17;10.32;;;4.82;;
80481;SDS011;69797;43.864;21.410;2023-07-30T05:24:44;15.80;;;3.90;;
80481;SDS011;69797;43.864;21.410;2023-07-30T05:27:10;6.35;;;3.95;;
80481;SDS011;69797;43.864;21.410;2023-07-30T05:29:37;8.20;;;4.28;;
80481;SDS011;69797;43.864;21.410;2023-07-30T05:32:04;10.20;;;4.43;;
80481;SDS011;69797;43.864;21.410;2023-07-30T05:34:31;19.52;;;5.35;;
80481;SDS011;69797;43.864;21.410;2023-07-30T05:36:58;9.97;;;4.20;;
80481;SDS011;69797;43.864;21.410;2023-07-30T05:39:25;10.93;;;5.03;;
80481;SDS011;69797;43.864;21.410;2023-07-30T05:41:52;5.63;;;3.70;;
80481;SDS011;69797;43.864;21.410;2023-07-30T05:44:19;9.68;;;4.47;;
80481;SDS011;69797;43.864;21.410;2023-07-30T05:46:46;5.72;;;4.80;;
80481;SDS011;69797;43.864;21.410;2023-07-30T05:49:12;10.30;;;5.00;;
80481;SDS011;69797;43.864;21.410;2023-07-30T05:51:41;6.15;;;5.55;;
80481;SDS011;69797;43.864;21.410;2023-07-30T05:54:07;6.60;;;5.07;;
80481;SDS011;69797;43.864;21.410;2023-07-30T05:56:34;11.55;;;5.75;;
80481;SDS011;69797;43.864;21.410;2023-07-30T05:59:01;10.82;;;5.25;;
80481;SDS011;69797;43.864;21.410;2023-07-30T06:01:28;6.00;;;4.80;;
80481;SDS011;69797;43.864;21.410;2023-07-30T06:03:55;6.30;;;5.13;;
80481;SDS011;69797;43.864;21.410;2023-07-30T06:06:21;6.35;;;4.70;;
80481;SDS011;69797;43.864;21.410;2023-07-30T06:08:53;6.13;;;5.30;;
80481;SDS011;69797;43.864;21.410;2023-07-30T06:11:20;14.75;;;5.35;;
80481;SDS011;69797;43.864;21.410;2023-07-30T06:13:47;9.10;;;5.57;;
80481;SDS011;69797;43.864;21.410;2023-07-30T06:16:14;6.72;;;5.53;;
80481;SDS011;69797;43.864;21.410;2023-07-30T06:18:43;7.15;;;5.53;;
80481;SDS011;69797;43.864;21.410;2023-07-30T06:21:10;6.20;;;5.30;;
80481;SDS011;69797;43.864;21.410;2023-07-30T06:23:36;5.75;;;5.15;;
80481;SDS011;69797;43.864;21.410;2023-07-30T06:26:03;11.10;;;5.83;;
80481;SDS011;69797;43.864;21.410;2023-07-30T06:28:48;12.15;;;5.78;;
80481;SDS011;69797;43.864;21.410;2023-07-30T06:31:15;9.00;;;5.90;;
80481;SDS011;69797;43.864;21.410;2023-07-30T06:33:42;6.43;;;5.82;;
80481;SDS011;69797;43.864;21.410;2023-07-30T06:36:09;6.70;;;6.00;;
80481;SDS011;69797;43.864;21.410;2023-07-30T06:38:35;9.53;;;5.50;;
80481;SDS011;69797;43.864;21.410;2023-07-30T06:41:03;17.73;;;8.05;;
80481;SDS011;69797;43.864;21.410;2023-07-30T06:43:31;15.93;;;8.15;;
80481;SDS011;69797;43.864;21.410;2023-07-30T06:45:58;45.17;;;21.85;;
80481;SDS011;69797;43.864;21.410;2023-07-30T06:48:24;16.27;;;10.57;;
80481;SDS011;69797;43.864;21.410;2023-07-30T06:50:51;19.87;;;8.40;;
80481;SDS011;69797;43.864;21.410;2023-07-30T06:53:18;13.18;;;8.40;;
